Time;durP1;ratioP1;P1;durP2;ratioP2;P2;SDS_P1;SDS_P2;PMS_P1;PMS_P2;Temp;Humidity;BMP_temperature;BMP_pressure;BME280_temperature;BME280_humidity;BME280_pressure;Samples;Min_cycle;Max_cycle;Signal;HPM_P1;HPM_P2
2022/07/16 00:03:28;;;;;;;;;;;15.00;99.90;;;;;;5049827;28;19931;-67
2022/07/16 00:05:55;;;;;;;;;;;14.90;99.90;;;;;;5048613;28;19935;-67
2022/07/16 00:08:23;;;;;;;;;;;15.00;99.90;;;;;;5052430;28;19924;-68
2022/07/16 00:10:50;;;;;;;;;;;14.90;99.90;;;;;;5047871;28;20010;-68
2022/07/16 00:13:17;;;;;;;;;;;14.90;99.90;;;;;;5047717;28;20015;-67
2022/07/16 00:15:44;;;;;;;;;;;14.90;99.90;;;;;;5044349;28;19937;-68
2022/07/16 00:20:54;;;;;;;;;;;14.90;99.90;;;;;;5041307;28;19932;-68
2022/07/16 00:23:21;;;;;;;;;;;14.90;99.90;;;;;;5049386;28;20027;-68
2022/07/16 00:25:49;;;;;;;;;;;14.90;99.90;;;;;;5047090;28;20388;-68
2022/07/16 00:28:16;;;;;;;;;;;14.90;99.90;;;;;;5046349;28;19933;-69
2022/07/16 00:30:42;;;;;;;;;;;14.90;99.90;;;;;;5046972;28;19931;-68
2022/07/16 00:33:09;;;;;;;;;;;14.80;99.90;;;;;;5042948;28;20015;-68
2022/07/16 00:35:36;;;;;;;;;;;14.80;99.90;;;;;;5047451;28;19933;-68
2022/07/16 00:38:04;;;;;;;;;;;14.80;99.90;;;;;;5048423;28;20359;-69
2022/07/16 00:40:31;;;;;;;;;;;14.80;99.90;;;;;;5046831;28;19956;-69
2022/07/16 00:42:59;;;;;;;;;;;14.80;99.90;;;;;;5050769;28;20355;-68
2022/07/16 00:45:26;;;;;;;;;;;14.80;99.90;;;;;;5043808;28;19970;-68
2022/07/16 00:47:52;;;;;;;;;;;14.80;99.90;;;;;;5045780;28;19971;-69
2022/07/16 00:50:19;;;;;;;;;;;14.90;99.90;;;;;;5044963;28;19983;-67
2022/07/16 00:52:46;;;;;;;;;;;14.90;99.90;;;;;;5050887;28;19975;-67
2022/07/16 00:55:12;;;;;;;;;;;15.00;99.90;;;;;;5046166;28;19928;-66
2022/07/16 00:57:39;;;;;;;;;;;15.00;99.90;;;;;;5043687;28;19929;-67
2022/07/16 01:00:08;;;;;;;;;;;15.00;99.90;;;;;;5046041;28;19925;-67
2022/07/16 01:02:35;;;;;;;;;;;15.00;99.90;;;;;;5050211;28;20323;-67
2022/07/16 01:05:02;;;;;;;;;;;15.10;99.90;;;;;;5041827;28;20410;-67
2022/07/16 01:07:29;;;;;;;;;;;15.00;99.90;;;;;;5047002;28;20907;-67
2022/07/16 01:09:57;;;;;;;;;;;14.90;99.90;;;;;;5045457;28;19933;-67
2022/07/16 01:12:25;;;;;;;;;;;14.80;99.90;;;;;;5048212;28;19932;-67
2022/07/16 01:14:52;;;;;;;;;;;14.80;99.90;;;;;;5046905;28;19925;-67
2022/07/16 01:17:20;;;;;;;;;;;14.80;99.90;;;;;;5046778;28;19986;-67
2022/07/16 01:19:47;;;;;;;;;;;14.80;99.90;;;;;;5047199;28;19924;-67
2022/07/16 01:22:17;;;;;;;;;;;14.80;99.90;;;;;;5049492;28;20028;-67
2022/07/16 01:24:45;;;;;;;;;;;14.80;99.90;;;;;;5047918;28;20391;-67
2022/07/16 01:27:12;;;;;;;;;;;14.90;99.90;;;;;;5047105;28;19960;-67
2022/07/16 01:29:39;;;;;;;;;;;14.90;99.90;;;;;;5049522;28;19998;-68
2022/07/16 01:32:06;;;;;;;;;;;14.90;99.90;;;;;;5052656;28;19967;-68
2022/07/16 01:34:33;;;;;;;;;;;14.90;99.90;;;;;;5050837;28;20395;-67
2022/07/16 01:37:00;;;;;;;;;;;15.00;99.90;;;;;;5050858;28;20020;-67
2022/07/16 01:39:28;;;;;;;;;;;15.00;99.90;;;;;;5049211;28;20071;-68
2022/07/16 01:41:56;;;;;;;;;;;15.00;99.90;;;;;;5049896;28;19968;-67
2022/07/16 01:44:24;;;;;;;;;;;15.10;99.90;;;;;;5050230;28;20711;-67
2022/07/16 01:46:51;;;;;;;;;;;15.10;99.90;;;;;;5049337;28;19929;-67
2022/07/16 01:49:18;;;;;;;;;;;15.00;99.90;;;;;;5046957;28;19925;-67
2022/07/16 01:51:45;;;;;;;;;;;15.00;99.90;;;;;;5051382;28;20741;-67
2022/07/16 01:54:11;;;;;;;;;;;15.00;99.90;;;;;;5049563;28;20376;-68
2022/07/16 01:56:38;;;;;;;;;;;15.10;99.90;;;;;;5051611;28;19979;-67
2022/07/16 01:59:06;;;;;;;;;;;15.00;99.90;;;;;;5052720;28;20007;-67
2022/07/16 02:01:33;;;;;;;;;;;15.00;99.90;;;;;;5052175;28;20004;-67
2022/07/16 02:04:00;;;;;;;;;;;15.00;99.90;;;;;;5050905;28;20016;-67
2022/07/16 02:06:27;;;;;;;;;;;15.00;99.90;;;;;;5043438;28;19931;-67
2022/07/16 02:08:54;;;;;;;;;;;14.90;99.90;;;;;;5048601;28;20023;-67
2022/07/16 02:11:21;;;;;;;;;;;14.90;99.90;;;;;;5051976;28;20509;-67
2022/07/16 02:13:47;;;;;;;;;;;14.80;99.90;;;;;;5051594;28;19924;-67
2022/07/16 02:16:15;;;;;;;;;;;14.80;99.90;;;;;;5050835;28;20019;-67
2022/07/16 02:18:42;;;;;;;;;;;14.80;99.90;;;;;;5050978;28;20012;-68
2022/07/16 02:21:09;;;;;;;;;;;14.80;99.90;;;;;;5049973;28;19935;-68
2022/07/16 02:23:35;;;;;;;;;;;14.70;99.90;;;;;;5049535;28;19990;-67
2022/07/16 02:26:02;;;;;;;;;;;14.60;99.90;;;;;;5049361;28;19925;-67
2022/07/16 02:28:29;;;;;;;;;;;14.50;99.90;;;;;;5051773;28;20412;-67
2022/07/16 02:30:55;;;;;;;;;;;14.50;99.90;;;;;;5047790;28;20007;-68
2022/07/16 02:33:23;;;;;;;;;;;14.40;99.90;;;;;;5050486;28;19980;-67
2022/07/16 02:35:50;;;;;;;;;;;14.40;99.90;;;;;;5049675;28;19967;-67
2022/07/16 02:38:17;;;;;;;;;;;14.40;99.90;;;;;;5046774;28;20012;-67
2022/07/16 02:40:43;;;;;;;;;;;14.40;99.90;;;;;;5049693;28;19925;-66
2022/07/16 02:43:11;;;;;;;;;;;14.40;99.90;;;;;;5052260;28;20012;-66
2022/07/16 02:45:38;;;;;;;;;;;14.50;99.90;;;;;;5048533;28;20004;-66
2022/07/16 02:48:05;;;;;;;;;;;14.50;99.90;;;;;;5051778;28;19976;-67
2022/07/16 02:50:34;;;;;;;;;;;14.40;99.90;;;;;;5046669;28;20307;-66
2022/07/16 02:53:01;;;;;;;;;;;14.40;99.90;;;;;;5052309;28;19986;-67
2022/07/16 02:55:27;;;;;;;;;;;14.40;99.90;;;;;;5047226;28;20016;-67
2022/07/16 02:57:54;;;;;;;;;;;14.30;99.90;;;;;;5050324;28;19967;-67
2022/07/16 03:00:21;;;;;;;;;;;14.30;99.90;;;;;;5049269;28;19983;-67
2022/07/16 03:02:48;;;;;;;;;;;14.30;99.90;;;;;;5051279;28;19931;-67
2022/07/16 03:05:14;;;;;;;;;;;14.20;99.90;;;;;;5044938;28;20027;-67
2022/07/16 03:07:43;;;;;;;;;;;14.20;99.90;;;;;;5052124;28;19925;-67
2022/07/16 03:10:10;;;;;;;;;;;14.20;99.90;;;;;;5049489;28;20003;-67
2022/07/16 03:12:36;;;;;;;;;;;14.10;99.90;;;;;;5050695;28;19932;-67
2022/07/16 03:15:03;;;;;;;;;;;14.10;99.90;;;;;;5046884;28;19967;-67
2022/07/16 03:17:30;;;;;;;;;;;14.10;99.90;;;;;;5049823;28;19929;-67
2022/07/16 03:19:57;;;;;;;;;;;14.10;99.90;;;;;;5049412;28;19929;-67
2022/07/16 03:22:24;;;;;;;;;;;14.10;99.90;;;;;;5052095;28;20299;-67
2022/07/16 03:24:53;;;;;;;;;;;14.10;99.90;;;;;;5045957;28;19960;-67
2022/07/16 03:27:19;;;;;;;;;;;14.10;99.90;;;;;;5051518;28;19924;-67
2022/07/16 03:29:46;;;;;;;;;;;14.10;99.90;;;;;;5044279;28;20024;-67
2022/07/16 03:32:13;;;;;;;;;;;14.00;99.90;;;;;;5048934;28;20396;-67
2022/07/16 03:34:40;;;;;;;;;;;14.00;99.90;;;;;;5050468;28;19952;-67
2022/07/16 03:37:06;;;;;;;;;;;14.00;99.90;;;;;;5047426;28;20291;-67
2022/07/16 03:39:33;;;;;;;;;;;13.90;99.90;;;;;;5048293;28;20362;-67
2022/07/16 03:42:01;;;;;;;;;;;13.90;99.90;;;;;;5051394;28;20023;-67
2022/07/16 03:44:28;;;;;;;;;;;13.90;99.90;;;;;;5048531;28;20362;-67
2022/07/16 03:46:54;;;;;;;;;;;13.80;99.90;;;;;;5050386;28;19967;-68
2022/07/16 03:49:21;;;;;;;;;;;13.80;99.90;;;;;;5046210;28;20016;-67
2022/07/16 03:51:48;;;;;;;;;;;13.80;99.90;;;;;;5049246;28;19925;-67
2022/07/16 03:54:15;;;;;;;;;;;13.90;99.90;;;;;;5047926;28;19931;-67
2022/07/16 03:56:41;;;;;;;;;;;14.00;99.90;;;;;;5049830;28;19925;-67
2022/07/16 03:59:10;;;;;;;;;;;14.00;99.90;;;;;;5048830;28;20012;-67
2022/07/16 04:01:37;;;;;;;;;;;14.20;99.90;;;;;;5050485;28;20415;-67
2022/07/16 04:04:04;;;;;;;;;;;14.30;99.90;;;;;;5049266;28;20039;-67
2022/07/16 04:06:31;;;;;;;;;;;14.30;99.90;;;;;;5048347;28;20273;-67
2022/07/16 04:08:57;;;;;;;;;;;14.30;99.90;;;;;;5047643;28;21185;-67
2022/07/16 04:11:24;;;;;;;;;;;14.30;99.90;;;;;;5049637;28;19979;-68
2022/07/16 04:13:51;;;;;;;;;;;14.40;99.90;;;;;;5049699;28;20013;-67
2022/07/16 04:16:19;;;;;;;;;;;14.30;99.90;;;;;;5045611;28;19964;-67
2022/07/16 04:18:45;;;;;;;;;;;14.30;99.90;;;;;;5043941;28;19925;-68
2022/07/16 04:21:12;;;;;;;;;;;14.20;99.90;;;;;;5048025;28;19964;-67
2022/07/16 04:23:39;;;;;;;;;;;14.20;99.90;;;;;;5045877;28;20485;-67
2022/07/16 04:26:05;;;;;;;;;;;14.20;99.90;;;;;;5048958;28;19925;-67
2022/07/16 04:28:32;;;;;;;;;;;14.30;99.90;;;;;;5047265;28;19998;-68
2022/07/16 04:30:59;;;;;;;;;;;14.40;99.90;;;;;;5046733;28;20023;-67
2022/07/16 04:33:27;;;;;;;;;;;14.60;99.90;;;;;;5049492;28;19960;-67
2022/07/16 04:35:54;;;;;;;;;;;14.60;99.90;;;;;;5044761;28;19968;-67
2022/07/16 04:38:20;;;;;;;;;;;14.70;99.90;;;;;;5045466;28;20015;-68
2022/07/16 04:40:47;;;;;;;;;;;14.90;99.90;;;;;;5047843;28;20011;-67
2022/07/16 04:43:14;;;;;;;;;;;15.00;99.90;;;;;;5050399;28;20018;-67
2022/07/16 04:45:40;;;;;;;;;;;15.00;99.90;;;;;;5047425;28;20019;-67
2022/07/16 04:48:07;;;;;;;;;;;15.10;99.90;;;;;;5049081;28;20024;-67
2022/07/16 04:50:35;;;;;;;;;;;15.10;99.90;;;;;;5045037;28;20003;-67
2022/07/16 04:53:01;;;;;;;;;;;15.20;99.90;;;;;;5045176;28;20056;-67
2022/07/16 04:55:28;;;;;;;;;;;15.20;99.90;;;;;;5047977;28;20295;-67
2022/07/16 04:57:55;;;;;;;;;;;15.30;99.90;;;;;;5048336;28;20027;-67
2022/07/16 05:00:22;;;;;;;;;;;15.50;99.90;;;;;;5047184;28;19928;-67
2022/07/16 05:02:57;;;;;;;;;;;15.60;99.90;;;;;;5053234;28;20015;-67
2022/07/16 05:05:24;;;;;;;;;;;15.60;99.90;;;;;;5051856;28;19956;-67
2022/07/16 05:07:52;;;;;;;;;;;15.70;99.90;;;;;;5051806;28;19925;-67
2022/07/16 05:10:19;;;;;;;;;;;15.70;99.90;;;;;;5049361;28;19929;-67
2022/07/16 05:12:46;;;;;;;;;;;15.80;99.90;;;;;;5052865;28;19972;-68
2022/07/16 05:15:13;;;;;;;;;;;15.80;99.90;;;;;;5048289;28;19965;-67
2022/07/16 05:17:39;;;;;;;;;;;15.90;99.90;;;;;;5052438;28;19932;-67
2022/07/16 05:20:07;;;;;;;;;;;15.90;99.90;;;;;;5047365;28;19932;-67
2022/07/16 05:22:33;;;;;;;;;;;16.00;99.90;;;;;;5052904;28;20459;-67
2022/07/16 05:25:01;;;;;;;;;;;15.90;99.90;;;;;;5051150;28;19998;-67
2022/07/16 05:27:28;;;;;;;;;;;16.00;99.90;;;;;;5050470;28;19925;-67
2022/07/16 05:29:55;;;;;;;;;;;16.10;99.90;;;;;;5050980;28;19943;-67
2022/07/16 05:32:21;;;;;;;;;;;16.10;99.90;;;;;;5049439;28;19960;-67
2022/07/16 05:34:48;;;;;;;;;;;16.20;99.90;;;;;;5051144;28;19975;-66
2022/07/16 05:37:15;;;;;;;;;;;16.30;99.90;;;;;;5051801;28;20386;-66
2022/07/16 05:39:41;;;;;;;;;;;16.60;99.90;;;;;;5049310;28;19924;-66
2022/07/16 05:42:10;;;;;;;;;;;16.80;99.90;;;;;;5052572;28;20089;-67
2022/07/16 05:44:36;;;;;;;;;;;17.00;99.90;;;;;;5040058;28;20291;-67
2022/07/16 05:47:03;;;;;;;;;;;17.00;99.90;;;;;;5042925;28;19982;-67
2022/07/16 05:49:30;;;;;;;;;;;17.10;99.90;;;;;;5049053;28;19931;-67
2022/07/16 05:51:57;;;;;;;;;;;17.20;99.90;;;;;;5049107;28;20022;-67
2022/07/16 05:54:24;;;;;;;;;;;17.20;99.90;;;;;;5046774;28;20025;-67
2022/07/16 05:56:50;;;;;;;;;;;17.20;99.90;;;;;;5049558;28;19964;-66
2022/07/16 05:59:18;;;;;;;;;;;17.30;99.90;;;;;;5051106;28;20016;-67
2022/07/16 06:01:45;;;;;;;;;;;17.50;99.90;;;;;;5053727;28;19932;-67
2022/07/16 06:04:12;;;;;;;;;;;17.80;99.90;;;;;;5049056;28;19964;-68
2022/07/16 06:06:38;;;;;;;;;;;19.10;99.90;;;;;;5050105;28;19979;-67
2022/07/16 06:09:05;;;;;;;;;;;20.80;99.60;;;;;;5041538;28;20009;-68
2022/07/16 06:11:32;;;;;;;;;;;22.10;95.00;;;;;;5051916;28;20483;-66
2022/07/16 06:13:59;;;;;;;;;;;22.60;93.10;;;;;;5048130;28;20315;-67
2022/07/16 06:16:27;;;;;;;;;;;22.80;92.30;;;;;;5046624;28;19956;-68
2022/07/16 06:18:54;;;;;;;;;;;23.30;91.40;;;;;;5048254;28;20011;-67
2022/07/16 06:21:20;;;;;;;;;;;23.20;90.40;;;;;;5052236;28;19925;-67
2022/07/16 06:23:47;;;;;;;;;;;22.70;91.50;;;;;;5049679;28;20058;-67
2022/07/16 06:26:14;;;;;;;;;;;23.00;91.30;;;;;;5048198;28;19964;-67
2022/07/16 06:28:40;;;;;;;;;;;23.50;90.80;;;;;;5049845;28;20403;-67
2022/07/16 06:31:07;;;;;;;;;;;24.40;88.20;;;;;;5050109;28;20451;-66
2022/07/16 06:33:35;;;;;;;;;;;25.30;84.30;;;;;;5052316;28;19964;-68
2022/07/16 06:36:02;;;;;;;;;;;24.90;82.30;;;;;;5045696;28;19971;-68
2022/07/16 06:38:29;;;;;;;;;;;25.50;78.90;;;;;;5049521;28;19928;-67
2022/07/16 06:40:55;;;;;;;;;;;24.90;78.40;;;;;;5048736;28;20015;-67
2022/07/16 06:43:22;;;;;;;;;;;23.50;81.80;;;;;;5044940;28;19990;-68
2022/07/16 06:45:49;;;;;;;;;;;22.50;87.40;;;;;;5043072;28;19925;-67
2022/07/16 06:48:15;;;;;;;;;;;21.50;91.90;;;;;;5038712;28;19925;-68
2022/07/16 06:50:43;;;;;;;;;;;21.10;95.80;;;;;;5038925;28;19929;-67
2022/07/16 06:53:10;;;;;;;;;;;22.90;93.80;;;;;;5039221;28;19982;-68
2022/07/16 06:55:37;;;;;;;;;;;24.30;88.70;;;;;;5042154;28;19971;-67
2022/07/16 06:58:03;;;;;;;;;;;25.10;83.20;;;;;;5041035;28;20775;-68
2022/07/16 07:00:30;;;;;;;;;;;25.80;77.60;;;;;;5042550;28;19931;-68
2022/07/16 07:02:57;;;;;;;;;;;25.00;76.20;;;;;;5044311;28;20200;-67
2022/07/16 07:05:24;;;;;;;;;;;24.10;83.60;;;;;;5041034;28;20075;-68
2022/07/16 07:07:52;;;;;;;;;;;23.20;84.10;;;;;;5043059;28;20003;-68
2022/07/16 07:10:20;;;;;;;;;;;22.10;91.60;;;;;;5042360;28;19932;-68
2022/07/16 07:12:46;;;;;;;;;;;22.40;91.10;;;;;;5047995;28;19925;-68
2022/07/16 07:15:13;;;;;;;;;;;22.60;90.40;;;;;;5042596;28;19929;-68
2022/07/16 07:17:40;;;;;;;;;;;21.60;92.90;;;;;;5047142;28;20047;-67
2022/07/16 07:20:07;;;;;;;;;;;21.50;94.10;;;;;;5044956;28;19948;-68
2022/07/16 07:22:34;;;;;;;;;;;20.80;95.60;;;;;;5048149;28;19925;-68
2022/07/16 07:25:02;;;;;;;;;;;20.20;97.70;;;;;;5048237;28;19960;-69
2022/07/16 07:27:29;;;;;;;;;;;20.90;96.90;;;;;;5048764;28;19925;-67
2022/07/16 07:29:55;;;;;;;;;;;21.90;94.70;;;;;;5047041;28;19925;-67
2022/07/16 07:32:22;;;;;;;;;;;22.60;92.60;;;;;;5050842;28;19964;-68
2022/07/16 07:34:49;;;;;;;;;;;23.10;91.70;;;;;;5045442;28;19975;-68
2022/07/16 07:37:15;;;;;;;;;;;23.40;90.20;;;;;;5045092;28;20651;-65
2022/07/16 07:39:42;;;;;;;;;;;23.70;86.80;;;;;;5045886;28;19984;-66
2022/07/16 07:42:10;;;;;;;;;;;22.10;90.70;;;;;;5050448;28;20075;-65
2022/07/16 07:44:37;;;;;;;;;;;22.60;91.50;;;;;;5041997;28;19964;-66
2022/07/16 07:47:04;;;;;;;;;;;23.80;87.70;;;;;;5044939;28;19925;-65
2022/07/16 07:49:30;;;;;;;;;;;22.80;86.10;;;;;;5040346;28;19928;-66
2022/07/16 07:51:57;;;;;;;;;;;22.80;85.90;;;;;;5045326;28;20015;-66
2022/07/16 07:54:24;;;;;;;;;;;23.30;86.20;;;;;;5043333;28;20043;-65
2022/07/16 07:56:51;;;;;;;;;;;25.00;78.10;;;;;;5045607;28;20011;-67
2022/07/16 07:59:19;;;;;;;;;;;24.60;75.00;;;;;;5042651;28;19964;-65
2022/07/16 08:01:45;;;;;;;;;;;24.70;76.00;;;;;;5050367;28;20013;-66
2022/07/16 08:04:12;;;;;;;;;;;25.80;70.90;;;;;;5046901;28;19952;-65
2022/07/16 08:06:39;;;;;;;;;;;25.10;66.80;;;;;;5040032;28;20021;-68
2022/07/16 08:09:06;;;;;;;;;;;24.30;70.20;;;;;;5031766;28;19929;-65
2022/07/16 08:11:33;;;;;;;;;;;23.40;73.70;;;;;;5029156;28;20162;-66
2022/07/16 08:13:59;;;;;;;;;;;22.50;79.50;;;;;;5032322;28;19929;-67
2022/07/16 08:16:28;;;;;;;;;;;21.70;84.20;;;;;;5048279;28;20006;-65
2022/07/16 08:18:54;;;;;;;;;;;21.20;90.10;;;;;;5046472;28;19983;-67
2022/07/16 08:21:21;;;;;;;;;;;22.70;88.30;;;;;;5041710;28;19931;-65
2022/07/16 08:26:32;;;;;;;;;;;23.50;79.30;;;;;;5047139;28;19939;-66
2022/07/16 08:28:59;;;;;;;;;;;23.00;78.00;;;;;;5048173;28;19991;-67
2022/07/16 08:31:25;;;;;;;;;;;23.40;77.80;;;;;;5046248;28;20512;-66
2022/07/16 08:33:54;;;;;;;;;;;24.00;74.00;;;;;;5044471;28;19924;-67
2022/07/16 08:36:21;;;;;;;;;;;23.20;75.80;;;;;;5044896;28;19925;-66
2022/07/16 08:38:48;;;;;;;;;;;22.10;78.10;;;;;;5038024;28;20376;-65
2022/07/16 08:41:15;;;;;;;;;;;22.20;80.70;;;;;;5042827;28;20376;-66
2022/07/16 08:43:42;;;;;;;;;;;23.40;76.80;;;;;;5040220;28;20187;-66
2022/07/16 08:46:10;;;;;;;;;;;24.40;69.70;;;;;;5042346;28;20415;-66
2022/07/16 08:48:38;;;;;;;;;;;25.00;68.40;;;;;;5044100;28;19979;-66
2022/07/16 08:51:08;;;;;;;;;;;26.60;56.80;;;;;;5043078;28;19936;-65
2022/07/16 08:53:34;;;;;;;;;;;26.00;57.60;;;;;;5043089;28;20004;-68
2022/07/16 08:56:01;;;;;;;;;;;25.30;53.50;;;;;;5040468;28;20023;-67
2022/07/16 08:58:30;;;;;;;;;;;25.40;56.80;;;;;;5039368;28;20388;-67
2022/07/16 09:00:57;;;;;;;;;;;24.80;55.80;;;;;;5039079;28;20024;-67
2022/07/16 09:03:23;;;;;;;;;;;26.30;52.70;;;;;;5042015;28;20452;-68
2022/07/16 09:05:51;;;;;;;;;;;27.00;47.00;;;;;;5038548;28;19928;-68
2022/07/16 09:08:19;;;;;;;;;;;26.60;46.90;;;;;;5041037;28;19929;-68
2022/07/16 09:10:46;;;;;;;;;;;25.70;46.30;;;;;;5042312;28;20071;-67
2022/07/16 09:13:13;;;;;;;;;;;25.80;49.00;;;;;;5040002;28;20024;-67
2022/07/16 09:15:40;;;;;;;;;;;25.90;48.40;;;;;;5036029;28;19940;-68
2022/07/16 09:18:08;;;;;;;;;;;25.10;49.60;;;;;;5033457;28;19940;-65
2022/07/16 09:20:35;;;;;;;;;;;24.80;50.70;;;;;;5037052;28;20008;-66
2022/07/16 09:23:03;;;;;;;;;;;24.90;50.70;;;;;;5042822;28;19940;-66
2022/07/16 09:25:31;;;;;;;;;;;24.30;51.40;;;;;;5038003;28;19932;-67
2022/07/16 09:27:58;;;;;;;;;;;24.40;49.80;;;;;;5039967;28;19932;-66
2022/07/16 09:30:26;;;;;;;;;;;23.50;48.80;;;;;;5040282;28;19972;-66
2022/07/16 09:32:52;;;;;;;;;;;23.60;46.70;;;;;;5040041;28;19933;-67
2022/07/16 09:35:19;;;;;;;;;;;24.50;45.30;;;;;;5039403;28;20434;-67
2022/07/16 09:37:47;;;;;;;;;;;24.60;43.60;;;;;;5037401;28;19983;-67
2022/07/16 09:40:14;;;;;;;;;;;24.60;42.20;;;;;;5038266;28;19975;-66
2022/07/16 09:42:42;;;;;;;;;;;24.30;40.70;;;;;;5036823;28;20292;-68
2022/07/16 09:45:19;;;;;;;;;;;23.90;41.20;;;;;;5042503;28;19931;-66
2022/07/16 09:47:46;;;;;;;;;;;24.50;40.50;;;;;;5039576;28;19925;-68
2022/07/16 09:50:12;;;;;;;;;;;24.80;39.70;;;;;;5047661;28;19924;-68
2022/07/16 09:52:39;;;;;;;;;;;25.30;37.50;;;;;;5045870;28;19945;-67
2022/07/16 09:55:07;;;;;;;;;;;24.80;38.80;;;;;;5041169;28;19937;-67
2022/07/16 09:57:34;;;;;;;;;;;23.70;40.70;;;;;;5043604;28;20697;-67
2022/07/16 10:00:02;;;;;;;;;;;23.60;41.10;;;;;;5044386;28;19943;-67
2022/07/16 10:02:29;;;;;;;;;;;23.30;43.00;;;;;;5044047;28;20484;-67
2022/07/16 10:04:56;;;;;;;;;;;24.70;40.60;;;;;;5046106;28;19928;-67
2022/07/16 10:07:23;;;;;;;;;;;25.10;39.70;;;;;;5046858;28;19929;-67
2022/07/16 10:09:49;;;;;;;;;;;23.40;42.50;;;;;;5044764;28;20004;-67
2022/07/16 10:12:17;;;;;;;;;;;23.40;43.80;;;;;;5047725;28;20031;-67
2022/07/16 10:14:45;;;;;;;;;;;23.60;40.90;;;;;;5040993;28;19964;-68
2022/07/16 10:17:14;;;;;;;;;;;24.10;40.10;;;;;;5046146;28;19932;-67
2022/07/16 10:19:41;;;;;;;;;;;23.80;40.20;;;;;;5042493;28;19968;-69
2022/07/16 10:22:19;;;;;;;;;;;23.00;41.60;;;;;;5048713;28;19976;-67
2022/07/16 10:24:47;;;;;;;;;;;23.10;43.30;;;;;;5043157;28;19931;-68
2022/07/16 10:27:17;;;;;;;;;;;23.70;41.10;;;;;;5044816;28;20016;-67
2022/07/16 10:29:44;;;;;;;;;;;23.70;38.90;;;;;;5048057;28;20455;-67
2022/07/16 10:32:29;;;;;;;;;;;23.30;39.10;;;;;;5041194;28;20009;-66
2022/07/16 10:35:00;;;;;;;;;;;23.70;37.90;;;;;;5042794;28;20023;-66
2022/07/16 10:37:28;;;;;;;;;;;23.50;37.30;;;;;;5044997;28;20011;-67
2022/07/16 10:39:59;;;;;;;;;;;23.30;35.70;;;;;;5047172;28;19932;-67
2022/07/16 10:42:27;;;;;;;;;;;22.90;35.20;;;;;;5044764;28;20015;-67
2022/07/16 10:44:53;;;;;;;;;;;23.40;33.40;;;;;;5045030;28;20376;-66
2022/07/16 10:47:20;;;;;;;;;;;23.90;34.00;;;;;;5043006;28;19976;-66
2022/07/16 10:49:47;;;;;;;;;;;23.60;34.90;;;;;;5035979;28;19940;-67
2022/07/16 10:52:16;;;;;;;;;;;23.60;34.70;;;;;;5036723;28;20353;-66
2022/07/16 10:54:43;;;;;;;;;;;23.00;35.00;;;;;;5044715;28;20396;-67
2022/07/16 10:57:10;;;;;;;;;;;22.70;36.40;;;;;;5046907;28;20015;-66
2022/07/16 10:59:38;;;;;;;;;;;23.10;36.00;;;;;;5041498;28;19932;-66
2022/07/16 11:02:06;;;;;;;;;;;23.30;35.00;;;;;;5044678;28;19934;-64
2022/07/16 11:04:37;;;;;;;;;;;23.30;35.90;;;;;;5044821;28;19925;-65
2022/07/16 11:07:07;;;;;;;;;;;23.60;34.90;;;;;;5041302;28;20340;-65
2022/07/16 11:09:35;;;;;;;;;;;23.40;34.00;;;;;;5045480;28;20023;-65
2022/07/16 11:12:10;;;;;;;;;;;23.80;33.40;;;;;;5043920;28;19932;-65
2022/07/16 11:14:37;;;;;;;;;;;23.90;34.30;;;;;;5046541;28;19971;-65
2022/07/16 11:17:04;;;;;;;;;;;23.60;32.80;;;;;;5049383;28;19987;-65
2022/07/16 11:19:35;;;;;;;;;;;23.50;32.60;;;;;;5040575;28;19929;-65
2022/07/16 11:22:02;;;;;;;;;;;23.80;34.10;;;;;;5041211;28;20439;-64
2022/07/16 11:24:29;;;;;;;;;;;23.80;33.40;;;;;;5047862;28;19979;-65
2022/07/16 11:26:58;;;;;;;;;;;23.60;34.00;;;;;;5045163;28;19937;-65
2022/07/16 11:29:25;;;;;;;;;;;23.30;34.70;;;;;;5041762;28;20011;-65
2022/07/16 11:31:53;;;;;;;;;;;23.10;34.20;;;;;;5041816;28;20052;-66
2022/07/16 11:34:22;;;;;;;;;;;23.40;33.80;;;;;;5039561;28;19933;-66
2022/07/16 11:36:51;;;;;;;;;;;23.00;33.90;;;;;;5039997;28;19929;-65
2022/07/16 11:39:18;;;;;;;;;;;23.00;35.30;;;;;;5038643;28;20035;-65
2022/07/16 11:41:47;;;;;;;;;;;23.40;33.50;;;;;;5042184;28;20171;-65
2022/07/16 11:44:16;;;;;;;;;;;23.30;34.60;;;;;;5040950;28;20024;-65
2022/07/16 11:46:44;;;;;;;;;;;23.40;34.10;;;;;;5044184;28;20016;-65
2022/07/16 11:49:10;;;;;;;;;;;23.90;33.80;;;;;;5043832;28;19970;-65
2022/07/16 11:51:39;;;;;;;;;;;23.80;32.80;;;;;;5041710;28;20629;-65
2022/07/16 11:54:05;;;;;;;;;;;23.70;33.80;;;;;;5045012;28;19925;-66
2022/07/16 11:56:33;;;;;;;;;;;23.30;34.00;;;;;;5039943;28;19928;-67
2022/07/16 11:58:59;;;;;;;;;;;23.60;33.50;;;;;;5042061;28;20027;-67
2022/07/16 12:01:30;;;;;;;;;;;22.90;34.80;;;;;;5041138;28;20027;-66
2022/07/16 12:03:57;;;;;;;;;;;22.80;35.50;;;;;;5042685;28;19983;-66
2022/07/16 12:06:24;;;;;;;;;;;22.90;34.80;;;;;;5049487;28;19925;-67
2022/07/16 12:08:52;;;;;;;;;;;23.20;34.90;;;;;;5047568;28;19978;-67
2022/07/16 12:11:18;;;;;;;;;;;23.20;30.60;;;;;;5044413;28;19933;-66
2022/07/16 12:13:51;;;;;;;;;;;23.70;31.00;;;;;;5047286;28;19956;-66
2022/07/16 12:16:19;;;;;;;;;;;24.10;30.00;;;;;;5036306;28;20018;-66
2022/07/16 12:19:00;;;;;;;;;;;24.10;30.00;;;;;;5042955;28;20015;-66
2022/07/16 12:21:26;;;;;;;;;;;23.70;29.80;;;;;;5044142;28;20524;-66
2022/07/16 12:23:54;;;;;;;;;;;24.00;30.60;;;;;;5044077;28;20011;-66
2022/07/16 12:26:27;;;;;;;;;;;23.90;30.40;;;;;;5044316;28;20016;-65
2022/07/16 12:28:54;;;;;;;;;;;24.20;29.70;;;;;;5045714;28;20015;-66
2022/07/16 12:31:21;;;;;;;;;;;23.60;30.20;;;;;;5047678;28;19972;-66
2022/07/16 12:33:51;;;;;;;;;;;23.20;31.20;;;;;;5048545;28;19963;-65
2022/07/16 12:36:19;;;;;;;;;;;23.80;31.50;;;;;;5034361;28;19924;-66
2022/07/16 12:38:49;;;;;;;;;;;23.70;31.90;;;;;;5047736;28;20007;-67
2022/07/16 12:41:17;;;;;;;;;;;23.40;31.90;;;;;;5046548;28;19936;-66
2022/07/16 12:43:45;;;;;;;;;;;23.90;31.90;;;;;;5048271;28;20332;-65
2022/07/16 12:46:12;;;;;;;;;;;24.10;29.90;;;;;;5061562;28;19929;-66
2022/07/16 12:48:42;;;;;;;;;;;24.40;29.00;;;;;;5047276;28;19931;-66
2022/07/16 12:51:10;;;;;;;;;;;24.60;29.60;;;;;;5046572;28;20019;-66
2022/07/16 12:53:38;;;;;;;;;;;24.90;29.60;;;;;;5048602;28;20024;-66
2022/07/16 12:58:48;;;;;;;;;;;23.50;31.50;;;;;;5047949;28;19978;-65
2022/07/16 13:01:15;;;;;;;;;;;23.70;31.90;;;;;;5045458;28;20027;-64
2022/07/16 13:03:42;;;;;;;;;;;24.30;29.40;;;;;;5046438;28;19925;-65
2022/07/16 13:06:09;;;;;;;;;;;23.90;30.00;;;;;;5045018;28;20368;-65
2022/07/16 13:08:36;;;;;;;;;;;23.90;30.60;;;;;;5043492;28;20008;-65
2022/07/16 13:11:06;;;;;;;;;;;23.60;31.20;;;;;;5048018;28;19931;-65
2022/07/16 13:13:33;;;;;;;;;;;23.30;30.80;;;;;;5045007;28;19931;-65
2022/07/16 13:15:59;;;;;;;;;;;23.60;31.10;;;;;;5043784;28;19932;-65
2022/07/16 13:18:26;;;;;;;;;;;23.40;30.00;;;;;;5041303;28;20040;-65
2022/07/16 13:20:53;;;;;;;;;;;23.20;30.50;;;;;;5044041;28;19975;-65
2022/07/16 13:23:20;;;;;;;;;;;23.30;30.90;;;;;;5046994;28;19968;-65
2022/07/16 13:25:46;;;;;;;;;;;23.30;31.00;;;;;;5046700;28;19960;-66
2022/07/16 13:28:14;;;;;;;;;;;23.60;31.30;;;;;;5042389;28;20015;-66
2022/07/16 13:30:41;;;;;;;;;;;24.00;31.30;;;;;;5050115;28;20018;-66
2022/07/16 13:33:08;;;;;;;;;;;24.10;29.50;;;;;;5053855;28;19925;-66
2022/07/16 13:35:35;;;;;;;;;;;24.00;28.50;;;;;;5049876;28;20367;-65
2022/07/16 13:38:02;;;;;;;;;;;23.90;29.60;;;;;;5051636;28;19924;-66
2022/07/16 13:40:28;;;;;;;;;;;23.70;29.70;;;;;;5043390;28;19972;-65
2022/07/16 13:42:55;;;;;;;;;;;23.40;29.60;;;;;;5047512;28;19969;-65
2022/07/16 13:45:23;;;;;;;;;;;23.30;30.40;;;;;;5045983;28;20464;-66
2022/07/16 13:47:50;;;;;;;;;;;24.20;29.40;;;;;;5047607;28;20164;-66
2022/07/16 13:50:17;;;;;;;;;;;23.60;28.90;;;;;;5044345;28;19964;-67
2022/07/16 13:52:43;;;;;;;;;;;23.80;28.40;;;;;;5047479;28;20023;-66
2022/07/16 13:55:10;;;;;;;;;;;23.60;28.80;;;;;;5039158;28;19968;-65
2022/07/16 14:00:25;;;;;;;;;;;23.90;28.90;;;;;;5044098;28;19947;-66
2022/07/16 14:02:52;;;;;;;;;;;24.00;28.80;;;;;;5049367;28;20073;-66
2022/07/16 14:05:19;;;;;;;;;;;24.20;28.50;;;;;;5047520;28;19925;-66
2022/07/16 14:07:45;;;;;;;;;;;24.30;28.60;;;;;;5050460;28;20016;-66
2022/07/16 14:10:13;;;;;;;;;;;23.80;28.40;;;;;;5042804;28;20276;-66
2022/07/16 14:12:40;;;;;;;;;;;23.90;29.10;;;;;;5046802;28;20348;-66
2022/07/16 14:15:09;;;;;;;;;;;24.00;28.40;;;;;;5046307;28;20331;-66
2022/07/16 14:17:37;;;;;;;;;;;24.10;28.00;;;;;;5044919;28;19936;-66
2022/07/16 14:20:04;;;;;;;;;;;24.30;27.30;;;;;;5046416;28;19924;-66
2022/07/16 14:22:31;;;;;;;;;;;24.90;27.50;;;;;;5044599;28;19928;-66
2022/07/16 14:24:58;;;;;;;;;;;25.10;26.50;;;;;;5040221;28;20028;-66
2022/07/16 14:27:24;;;;;;;;;;;25.10;27.00;;;;;;5039998;28;20366;-66
2022/07/16 14:29:52;;;;;;;;;;;24.30;27.60;;;;;;5037379;28;19925;-66